Time;durP1;ratioP1;P1;durP2;ratioP2;P2;SDS_P1;SDS_P2;PMS_P1;PMS_P2;Temp;Humidity;BMP_temperature;BMP_pressure;BME280_temperature;BME280_humidity;BME280_pressure;Samples;Min_cycle;Max_cycle;Signal;HPM_P1;HPM_P2
2022/11/16 00:01:47;;;;;;;0.77;0.77;;;8.00;99.90;;;;;;5072868;28;20133;-75
2022/11/16 00:04:13;;;;;;;0.30;0.30;;;8.10;99.90;;;;;;5072990;28;20040;-75
2022/11/16 00:06:39;;;;;;;0.40;0.40;;;8.00;99.90;;;;;;5068899;28;20079;-75
2022/11/16 00:09:25;;;;;;;0.30;0.30;;;8.00;99.90;;;;;;5065350;28;20103;-75
2022/11/16 00:11:57;;;;;;;0.88;0.88;;;8.00;99.90;;;;;;5054225;28;20028;-75
2022/11/16 00:14:24;;;;;;;0.30;0.30;;;8.10;99.90;;;;;;5068536;28;20039;-75
2022/11/16 00:16:50;;;;;;;0.30;0.30;;;8.00;99.90;;;;;;5073566;28;20024;-75
2022/11/16 00:19:16;;;;;;;0.30;0.30;;;8.00;99.90;;;;;;5072624;28;20031;-75
2022/11/16 00:21:42;;;;;;;0.20;0.20;;;8.00;99.90;;;;;;5073899;28;20052;-75
2022/11/16 00:24:11;;;;;;;0.30;0.30;;;8.10;99.90;;;;;;5059285;28;20099;-75
2022/11/16 00:26:37;;;;;;;0.50;0.50;;;8.10;99.90;;;;;;5052216;28;20029;-74
2022/11/16 00:29:02;;;;;;;0.30;0.30;;;8.00;99.90;;;;;;5053840;28;20062;-74
2022/11/16 00:31:28;;;;;;;0.57;0.57;;;8.10;99.90;;;;;;5073650;28;20028;-75
2022/11/16 00:33:53;;;;;;;0.30;0.30;;;8.10;99.90;;;;;;5073609;28;20074;-75
2022/11/16 00:36:19;;;;;;;0.30;0.30;;;8.10;99.90;;;;;;5073552;28;20024;-75
2022/11/16 00:38:45;;;;;;;0.30;0.30;;;8.10;99.90;;;;;;5059652;28;20032;-75
2022/11/16 00:41:10;;;;;;;0.30;0.30;;;8.10;99.90;;;;;;5065531;28;20056;-74
2022/11/16 00:43:36;;;;;;;0.30;0.30;;;8.00;99.90;;;;;;5065456;28;20129;-75
2022/11/16 00:46:02;;;;;;;0.30;0.30;;;8.00;99.90;;;;;;5059923;28;20478;-75
2022/11/16 00:48:28;;;;;;;1.77;1.70;;;8.00;99.90;;;;;;5073040;28;20028;-74
2022/11/16 00:50:53;;;;;;;0.28;0.28;;;8.00;99.90;;;;;;5065450;28;20084;-74
2022/11/16 00:53:20;;;;;;;0.30;0.30;;;8.10;99.90;;;;;;5067791;28;20158;-74
2022/11/16 00:55:47;;;;;;;0.40;0.40;;;8.10;99.90;;;;;;5073042;28;20033;-74
2022/11/16 00:58:13;;;;;;;0.30;0.30;;;8.10;99.90;;;;;;5059603;28;20033;-74
2022/11/16 01:00:40;;;;;;;0.40;0.40;;;8.10;99.90;;;;;;5073150;28;20029;-73
2022/11/16 01:03:06;;;;;;;0.30;0.30;;;8.00;99.90;;;;;;5073035;28;20025;-73
2022/11/16 01:05:31;;;;;;;0.30;0.30;;;8.00;99.90;;;;;;5071647;28;20024;-74
2022/11/16 01:07:57;;;;;;;0.30;0.30;;;8.00;99.90;;;;;;5072636;28;20052;-73
2022/11/16 01:10:24;;;;;;;0.30;0.30;;;8.00;99.90;;;;;;5072844;28;20032;-74
2022/11/16 01:12:51;;;;;;;0.30;0.30;;;7.90;99.90;;;;;;5070988;28;20533;-74
2022/11/16 01:15:19;;;;;;;0.40;0.40;;;7.90;99.90;;;;;;5061397;28;20575;-73
2022/11/16 01:17:45;;;;;;;0.30;0.30;;;7.90;99.90;;;;;;5059288;28;20060;-73
2022/11/16 01:20:17;;;;;;;0.30;0.30;;;7.90;99.90;;;;;;5072737;28;20025;-73
2022/11/16 01:22:43;;;;;;;0.30;0.30;;;7.80;99.90;;;;;;5068304;28;20483;-73
2022/11/16 01:25:09;;;;;;;0.30;0.30;;;7.90;99.90;;;;;;5062368;28;20033;-74
2022/11/16 01:27:37;;;;;;;0.30;0.30;;;7.80;99.90;;;;;;5072245;28;20032;-74
2022/11/16 01:30:06;;;;;;;0.57;0.57;;;7.70;99.90;;;;;;5072546;28;20024;-75
2022/11/16 01:32:32;;;;;;;0.30;0.30;;;7.80;99.90;;;;;;5059126;28;20077;-75
2022/11/16 01:34:57;;;;;;;0.40;0.40;;;7.80;99.90;;;;;;5062216;28;20021;-74
2022/11/16 01:37:23;;;;;;;0.40;0.40;;;7.70;99.90;;;;;;5069131;28;20028;-75
2022/11/16 01:39:49;;;;;;;0.85;0.85;;;7.50;99.90;;;;;;5060890;28;20056;-74
2022/11/16 01:42:24;;;;;;;1.25;1.25;;;7.40;99.90;;;;;;5065740;28;20075;-75
2022/11/16 01:45:12;;;;;;;0.40;0.40;;;7.30;99.90;;;;;;5062530;28;20029;-75
2022/11/16 01:47:38;;;;;;;0.40;0.40;;;7.30;99.90;;;;;;5059978;28;20283;-76
2022/11/16 01:50:13;;;;;;;0.38;0.38;;;7.40;99.90;;;;;;5056982;28;20091;-75
2022/11/16 01:52:43;;;;;;;0.40;0.40;;;7.40;99.90;;;;;;5063102;28;20021;-75
2022/11/16 01:55:10;;;;;;;0.30;0.30;;;7.60;99.90;;;;;;5065385;28;20025;-75
2022/11/16 01:57:41;;;;;;;0.30;0.30;;;7.60;99.90;;;;;;5062337;28;20135;-75
2022/11/16 02:00:09;;;;;;;0.40;0.40;;;7.60;99.90;;;;;;5058501;28;20032;-75
2022/11/16 02:02:35;;;;;;;0.30;0.30;;;7.50;99.90;;;;;;5072015;28;20028;-75
2022/11/16 02:05:01;;;;;;;1.05;1.05;;;7.50;99.90;;;;;;5066913;28;20025;-74
2022/11/16 02:11:04;;;;;;;0.30;0.30;;;7.50;99.90;;;;;;5066145;28;20378;-76
2022/11/16 02:13:56;;;;;;;0.40;0.40;;;7.50;99.90;;;;;;5058847;28;20535;-75
2022/11/16 02:16:40;;;;;;;0.30;0.30;;;7.50;99.90;;;;;;5058214;28;20032;-74
2022/11/16 02:19:26;;;;;;;0.30;0.30;;;7.60;99.90;;;;;;5070342;28;20024;-75
2022/11/16 02:22:23;;;;;;;0.35;0.35;;;7.50;99.90;;;;;;5056049;28;20656;-75
2022/11/16 02:25:13;;;;;;;0.55;0.55;;;7.50;99.90;;;;;;5063783;28;20127;-74
2022/11/16 02:27:50;;;;;;;0.40;0.40;;;7.50;99.90;;;;;;5064825;28;20479;-74
2022/11/16 02:30:18;;;;;;;0.50;0.50;;;7.50;99.90;;;;;;5063298;28;20032;-75
2022/11/16 02:33:12;;;;;;;0.30;0.30;;;7.50;99.90;;;;;;5066614;28;20102;-75
2022/11/16 02:35:48;;;;;;;0.30;0.30;;;7.50;99.90;;;;;;5051125;28;20490;-74
2022/11/16 02:38:21;;;;;;;0.40;0.40;;;7.60;99.90;;;;;;5071548;28;20031;-74
2022/11/16 02:40:51;;;;;;;0.40;0.40;;;7.50;99.90;;;;;;5058224;28;20020;-74
2022/11/16 02:43:25;;;;;;;0.40;0.40;;;7.30;99.90;;;;;;5071611;28;20033;-74
2022/11/16 02:45:54;;;;;;;0.35;0.35;;;7.40;99.90;;;;;;5064471;28;20029;-74
2022/11/16 02:48:25;;;;;;;0.40;0.40;;;7.30;99.90;;;;;;5051381;28;20029;-75
2022/11/16 02:50:52;;;;;;;0.32;0.32;;;7.30;99.90;;;;;;5058266;28;20363;-75
2022/11/16 02:53:20;;;;;;;0.35;0.35;;;7.40;99.90;;;;;;5058101;28;20021;-75
2022/11/16 02:55:46;;;;;;;0.43;0.43;;;7.40;99.90;;;;;;5063949;28;20025;-75
2022/11/16 02:58:16;;;;;;;0.40;0.40;;;7.30;99.90;;;;;;5065196;28;20038;-75
2022/11/16 03:01:08;;;;;;;0.43;0.43;;;7.40;99.90;;;;;;5063485;28;20017;-75
2022/11/16 03:03:53;;;;;;;0.38;0.38;;;7.40;99.90;;;;;;5068790;28;20138;-75
2022/11/16 03:06:27;;;;;;;0.40;0.40;;;7.40;99.90;;;;;;5068663;28;20021;-75
2022/11/16 03:09:04;;;;;;;0.30;0.30;;;7.50;99.90;;;;;;5055159;28;20629;-75
2022/11/16 03:14:21;;;;;;;0.40;0.40;;;7.60;99.90;;;;;;5069123;28;20035;-74
2022/11/16 03:16:54;;;;;;;0.40;0.40;;;7.50;99.90;;;;;;5061241;28;20024;-74
2022/11/16 03:19:40;;;;;;;2.88;2.67;;;7.40;99.90;;;;;;5062066;28;20049;-74
2022/11/16 03:22:14;;;;;;;0.40;0.40;;;7.30;99.90;;;;;;5064255;28;20021;-74
2022/11/16 03:24:40;;;;;;;0.40;0.40;;;7.30;99.90;;;;;;5073705;28;20020;-74
2022/11/16 03:27:15;;;;;;;0.30;0.30;;;7.20;99.90;;;;;;5074584;28;20028;-74
2022/11/16 03:29:57;;;;;;;0.40;0.40;;;7.30;99.90;;;;;;5061626;28;20062;-75
2022/11/16 03:32:39;;;;;;;2.65;2.35;;;7.40;99.90;;;;;;5061567;28;20029;-75
2022/11/16 03:35:21;;;;;;;0.40;0.40;;;7.50;99.90;;;;;;5063486;28;20444;-75
2022/11/16 03:37:49;;;;;;;0.40;0.40;;;7.40;99.90;;;;;;5061378;28;20032;-74
2022/11/16 03:40:17;;;;;;;0.50;0.50;;;7.40;99.90;;;;;;5061341;28;20044;-75
2022/11/16 03:42:44;;;;;;;1.15;1.15;;;7.50;99.90;;;;;;5074632;28;20061;-74
2022/11/16 03:45:11;;;;;;;0.38;0.38;;;7.50;99.90;;;;;;5059833;28;20025;-73
2022/11/16 03:47:37;;;;;;;0.50;0.50;;;7.40;99.90;;;;;;5065168;28;20025;-73
2022/11/16 03:50:03;;;;;;;0.45;0.45;;;7.20;99.90;;;;;;5068157;28;20480;-74
2022/11/16 03:52:28;;;;;;;0.50;0.50;;;7.10;99.90;;;;;;5060826;28;20074;-74
2022/11/16 03:54:54;;;;;;;0.43;0.43;;;6.90;99.90;;;;;;5074186;28;20421;-73
2022/11/16 03:57:20;;;;;;;0.43;0.43;;;7.00;99.90;;;;;;5074075;28;20036;-74
2022/11/16 03:59:45;;;;;;;0.60;0.60;;;7.00;99.90;;;;;;5074212;28;20065;-74
2022/11/16 04:02:11;;;;;;;0.50;0.50;;;7.10;99.90;;;;;;5074251;28;20028;-73
2022/11/16 04:29:15;;;;;;;0.50;0.50;;;6.60;99.90;;;;;;5073846;28;20043;-74
2022/11/16 04:39:58;;;;;;;0.70;0.70;;;6.70;99.90;;;;;;5053849;28;20502;-73
2022/11/16 04:42:23;;;;;;;1.30;1.30;;;6.80;99.90;;;;;;5069611;28;20029;-73
2022/11/16 04:47:33;;;;;;;0.60;0.60;;;6.70;99.90;;;;;;5059715;28;20039;-74
2022/11/16 04:49:58;;;;;;;0.57;0.57;;;6.80;99.90;;;;;;5073342;28;20016;-74
2022/11/16 04:52:24;;;;;;;0.60;0.60;;;6.80;99.90;;;;;;5073316;28;20049;-74
2022/11/16 04:54:49;;;;;;;0.60;0.60;;;6.90;99.90;;;;;;5073076;28;20017;-73
2022/11/16 04:57:15;;;;;;;0.60;0.60;;;7.00;99.90;;;;;;5071446;28;20059;-73
2022/11/16 04:59:40;;;;;;;0.70;0.70;;;7.00;99.90;;;;;;5073080;28;20031;-73
2022/11/16 05:02:09;;;;;;;0.80;0.80;;;7.00;99.90;;;;;;5073050;28;20060;-74
2022/11/16 05:04:40;;;;;;;0.60;0.60;;;7.00;99.90;;;;;;5072971;28;20530;-75
2022/11/16 05:07:12;;;;;;;0.60;0.60;;;7.10;99.90;;;;;;5072850;28;20035;-74
2022/11/16 05:09:46;;;;;;;0.60;0.60;;;7.10;99.90;;;;;;5069355;28;20027;-74
2022/11/16 05:12:17;;;;;;;0.75;0.75;;;7.00;99.90;;;;;;5062771;28;20016;-74
2022/11/16 05:14:43;;;;;;;0.50;0.50;;;7.10;99.90;;;;;;5072766;28;20017;-74
2022/11/16 05:17:09;;;;;;;0.80;0.80;;;7.10;99.90;;;;;;5072621;28;20040;-74
2022/11/16 05:22:19;;;;;;;0.73;0.73;;;7.10;99.90;;;;;;5073019;28;20038;-74
2022/11/16 05:24:45;;;;;;;0.73;0.73;;;7.10;99.90;;;;;;5071580;28;20107;-74
2022/11/16 05:27:13;;;;;;;0.50;0.50;;;7.10;99.90;;;;;;5072479;28;20482;-73
2022/11/16 05:29:39;;;;;;;14.27;13.23;;;7.10;99.90;;;;;;5057755;28;20434;-73
2022/11/16 05:32:06;;;;;;;0.70;0.70;;;7.10;99.90;;;;;;5059297;28;20021;-74
2022/11/16 05:34:32;;;;;;;0.60;0.60;;;7.10;99.90;;;;;;5051034;28;20055;-74
2022/11/16 05:36:58;;;;;;;0.70;0.70;;;7.10;99.90;;;;;;5052198;28;20048;-74
2022/11/16 05:39:24;;;;;;;0.70;0.70;;;7.10;99.90;;;;;;5052275;28;20017;-74
2022/11/16 05:41:50;;;;;;;0.60;0.60;;;7.10;99.90;;;;;;5050698;28;20044;-74
2022/11/16 05:44:16;;;;;;;0.68;0.68;;;7.00;99.90;;;;;;5059208;28;20064;-76
2022/11/16 05:46:43;;;;;;;0.70;0.70;;;6.80;99.90;;;;;;5058375;28;20100;-76
2022/11/16 05:49:09;;;;;;;1.50;1.40;;;6.90;99.90;;;;;;5059338;28;20028;-77
2022/11/16 05:51:35;;;;;;;0.80;0.80;;;6.90;99.90;;;;;;5072032;28;20017;-76
2022/11/16 05:54:02;;;;;;;0.70;0.70;;;6.90;99.90;;;;;;5063730;28;20025;-76
2022/11/16 05:56:28;;;;;;;0.70;0.70;;;6.90;99.90;;;;;;5065527;28;20035;-74
2022/11/16 05:58:54;;;;;;;0.60;0.60;;;7.00;99.90;;;;;;5058914;28;20025;-74
2022/11/16 06:01:19;;;;;;;0.70;0.70;;;7.10;99.90;;;;;;5058556;28;20033;-74
2022/11/16 06:03:45;;;;;;;0.80;0.80;;;7.10;99.90;;;;;;5065245;28;20418;-75
2022/11/16 06:06:10;;;;;;;0.80;0.80;;;7.20;99.90;;;;;;5063918;28;20403;-74
2022/11/16 06:08:36;;;;;;;0.65;0.65;;;7.20;99.90;;;;;;5060480;28;20506;-74
2022/11/16 06:11:03;;;;;;;0.70;0.70;;;7.20;99.90;;;;;;5079400;28;20056;-74
2022/11/16 06:13:30;;;;;;;2.10;2.00;;;7.20;99.90;;;;;;5072732;28;20043;-75
2022/11/16 06:15:55;;;;;;;3.45;3.25;;;7.20;99.90;;;;;;5077822;28;20042;-74
2022/11/16 06:18:21;;;;;;;0.90;0.90;;;7.00;99.90;;;;;;5081134;28;20639;-75
2022/11/16 06:20:47;;;;;;;5.05;4.10;;;6.90;99.90;;;;;;5071245;28;20025;-75
2022/11/16 06:23:13;;;;;;;1.05;1.05;;;7.00;99.90;;;;;;5051733;28;20056;-75
2022/11/16 06:25:39;;;;;;;1.35;1.35;;;7.00;99.90;;;;;;5065535;28;20028;-74
2022/11/16 06:28:06;;;;;;;1.38;1.38;;;6.80;99.90;;;;;;5071584;28;20035;-74
2022/11/16 06:30:32;;;;;;;3.67;3.38;;;6.70;99.90;;;;;;5058127;28;20021;-74
2022/11/16 06:32:57;;;;;;;1.60;1.60;;;6.60;99.90;;;;;;5070375;28;20501;-75
2022/11/16 06:35:23;;;;;;;1.50;1.50;;;6.60;99.90;;;;;;5069956;28;20133;-74
2022/11/16 06:37:49;;;;;;;1.80;1.73;;;6.60;99.90;;;;;;5058201;28;20390;-74
2022/11/16 06:40:14;;;;;;;2.38;2.28;;;6.60;99.90;;;;;;5071462;28;20434;-74
2022/11/16 06:42:40;;;;;;;2.03;1.98;;;6.60;99.90;;;;;;5058306;28;20390;-74
2022/11/16 06:45:06;;;;;;;5.13;3.17;;;6.60;99.90;;;;;;5071313;28;20085;-74
2022/11/16 06:47:33;;;;;;;3.97;3.78;;;6.60;99.90;;;;;;5057938;28;20482;-75
2022/11/16 06:49:59;;;;;;;1.70;1.70;;;6.60;99.90;;;;;;5058152;28;20017;-74
2022/11/16 06:52:24;;;;;;;3.13;3.00;;;6.50;99.90;;;;;;5070225;28;20108;-75
2022/11/16 06:54:50;;;;;;;3.95;3.75;;;6.50;99.90;;;;;;5069536;28;20028;-74
2022/11/16 06:57:15;;;;;;;2.55;2.45;;;6.40;99.90;;;;;;5049847;28;20174;-74
2022/11/16 06:59:41;;;;;;;2.25;2.20;;;6.30;99.90;;;;;;5063505;28;20460;-73
2022/11/16 07:02:09;;;;;;;2.03;2.03;;;6.30;99.90;;;;;;5064824;28;20108;-76
2022/11/16 07:04:35;;;;;;;1.95;1.95;;;6.20;99.90;;;;;;5064872;28;20099;-75
2022/11/16 07:07:00;;;;;;;13.50;6.45;;;6.20;99.90;;;;;;5071228;28;20470;-75
2022/11/16 07:09:26;;;;;;;6.53;6.22;;;6.10;99.90;;;;;;5061148;28;20086;-76
2022/11/16 07:11:51;;;;;;;5.25;4.78;;;6.00;99.90;;;;;;5052002;28;20018;-75
2022/11/16 07:14:17;;;;;;;1.70;1.70;;;6.00;99.90;;;;;;5064342;28;20029;-76
2022/11/16 07:16:42;;;;;;;2.55;2.45;;;6.00;99.90;;;;;;5062964;28;20021;-76
2022/11/16 07:19:09;;;;;;;2.58;2.38;;;6.00;99.90;;;;;;5051749;28;20386;-76
2022/11/16 07:21:36;;;;;;;1.77;1.77;;;6.00;99.90;;;;;;5064656;28;20547;-75
2022/11/16 07:24:01;;;;;;;1.98;1.98;;;6.00;99.90;;;;;;5064486;28;20024;-75
2022/11/16 07:26:29;;;;;;;4.07;3.92;;;6.00;99.90;;;;;;5057028;28;20020;-74
2022/11/16 07:28:57;;;;;;;2.95;2.85;;;6.10;99.90;;;;;;5057387;28;20033;-74
2022/11/16 07:31:23;;;;;;;3.33;3.22;;;6.00;99.90;;;;;;5063311;28;20029;-74
2022/11/16 07:33:48;;;;;;;2.05;2.03;;;6.00;99.90;;;;;;5063558;28;20024;-74
2022/11/16 07:36:14;;;;;;;2.30;2.25;;;6.10;99.90;;;;;;5050814;28;20498;-74
2022/11/16 07:38:40;;;;;;;1.95;1.95;;;6.10;99.90;;;;;;5062520;28;20035;-75
2022/11/16 07:41:09;;;;;;;1.83;1.83;;;6.10;99.90;;;;;;5058392;28;20082;-75
2022/11/16 07:43:35;;;;;;;3.50;3.30;;;6.10;99.90;;;;;;5057418;28;20502;-74
2022/11/16 07:46:05;;;;;;;1.73;1.73;;;6.10;99.90;;;;;;5063291;28;20027;-74
2022/11/16 07:48:31;;;;;;;3.00;2.88;;;6.20;99.90;;;;;;5067644;28;20441;-74
2022/11/16 07:51:05;;;;;;;2.38;2.28;;;6.40;99.90;;;;;;5066311;28;20467;-74
2022/11/16 07:53:32;;;;;;;1.90;1.90;;;6.40;99.90;;;;;;5067759;28;20458;-75
2022/11/16 07:55:57;;;;;;;2.40;2.30;;;6.40;99.90;;;;;;5063615;28;20025;-74
2022/11/16 07:58:24;;;;;;;2.63;2.45;;;6.40;99.90;;;;;;5058901;28;20031;-74
2022/11/16 08:00:49;;;;;;;2.22;2.13;;;6.30;99.90;;;;;;5065616;28;20044;-74
2022/11/16 08:03:15;;;;;;;2.85;2.75;;;6.20;99.90;;;;;;5067716;28;20028;-74
2022/11/16 08:05:41;;;;;;;2.42;2.33;;;6.30;99.90;;;;;;5062601;28;20387;-74
2022/11/16 08:08:07;;;;;;;2.53;2.42;;;6.30;99.90;;;;;;5060099;28;20029;-74
2022/11/16 08:10:32;;;;;;;2.05;2.05;;;6.50;99.90;;;;;;5061267;28;20109;-73
2022/11/16 08:12:58;;;;;;;2.05;2.03;;;6.60;99.90;;;;;;5057225;28;20052;-74
2022/11/16 08:15:24;;;;;;;3.78;3.63;;;6.70;99.90;;;;;;5064271;28;20025;-73
2022/11/16 08:17:50;;;;;;;2.58;2.47;;;6.70;99.90;;;;;;5069840;28;20028;-74
2022/11/16 08:20:16;;;;;;;2.38;2.28;;;6.70;99.90;;;;;;5064051;28;20029;-74
2022/11/16 08:22:42;;;;;;;4.10;3.90;;;6.70;99.90;;;;;;5056765;28;20504;-77
2022/11/16 08:25:08;;;;;;;2.38;2.28;;;6.80;99.90;;;;;;5064203;28;20025;-74
2022/11/16 08:27:35;;;;;;;2.55;2.45;;;6.70;99.90;;;;;;5066504;28;20078;-74
2022/11/16 08:30:02;;;;;;;2.60;2.50;;;6.70;99.90;;;;;;5063656;28;20086;-74
2022/11/16 08:32:28;;;;;;;3.10;3.00;;;6.80;99.90;;;;;;5060411;28;20023;-75
2022/11/16 08:34:54;;;;;;;2.15;2.13;;;6.80;99.90;;;;;;5073494;28;20071;-74
2022/11/16 08:37:20;;;;;;;2.58;2.47;;;6.60;99.90;;;;;;5071671;28;20032;-74
2022/11/16 08:39:46;;;;;;;2.45;2.35;;;6.80;99.90;;;;;;5063141;28;20025;-74
2022/11/16 08:42:11;;;;;;;2.40;2.30;;;6.90;99.90;;;;;;5056639;28;20059;-76
2022/11/16 08:44:37;;;;;;;2.55;2.45;;;6.90;99.90;;;;;;5063329;28;20039;-74
2022/11/16 08:47:03;;;;;;;2.75;2.65;;;7.00;99.90;;;;;;5069534;28;20055;-74
2022/11/16 08:49:28;;;;;;;2.95;2.85;;;7.20;99.90;;;;;;5063403;28;20405;-74
2022/11/16 08:51:54;;;;;;;2.45;2.35;;;6.90;99.90;;;;;;5058816;28;20012;-74
2022/11/16 08:54:20;;;;;;;2.70;2.60;;;6.90;99.90;;;;;;5058718;28;20494;-74
2022/11/16 08:56:45;;;;;;;2.58;2.47;;;6.90;99.90;;;;;;5079085;28;20514;-74
2022/11/16 08:59:11;;;;;;;3.47;3.28;;;7.00;99.90;;;;;;5071383;28;20055;-74
2022/11/16 09:01:37;;;;;;;4.03;3.92;;;6.90;99.90;;;;;;5073218;28;20070;-75
2022/11/16 09:04:02;;;;;;;4.03;3.92;;;7.00;99.90;;;;;;5063359;28;20025;-74
2022/11/16 09:06:28;;;;;;;3.20;3.10;;;7.00;99.90;;;;;;5066344;28;20078;-75
2022/11/16 09:08:54;;;;;;;5.65;5.35;;;6.90;99.90;;;;;;5060472;28;20027;-75
2022/11/16 09:11:22;;;;;;;3.72;3.53;;;6.90;99.90;;;;;;5068878;28;20020;-75
2022/11/16 09:13:49;;;;;;;3.50;3.40;;;7.00;99.90;;;;;;5063265;28;20044;-74
2022/11/16 09:16:16;;;;;;;4.03;3.92;;;7.00;99.90;;;;;;5063819;28;20032;-74
2022/11/16 09:18:43;;;;;;;3.35;3.25;;;7.10;99.90;;;;;;5062996;28;20107;-75
2022/11/16 09:21:08;;;;;;;3.05;2.95;;;7.10;99.90;;;;;;5072693;28;20490;-74
2022/11/16 09:23:34;;;;;;;5.03;4.72;;;7.10;99.90;;;;;;5061562;28;20032;-75
2022/11/16 09:26:02;;;;;;;4.82;4.53;;;7.00;99.90;;;;;;5066176;28;20044;-75
2022/11/16 09:28:28;;;;;;;3.80;3.70;;;7.10;99.90;;;;;;5052695;28;20116;-75
2022/11/16 09:31:03;;;;;;;3.83;3.72;;;7.10;99.90;;;;;;5053011;28;20447;-75
2022/11/16 09:33:29;;;;;;;3.60;3.50;;;7.10;99.90;;;;;;5052549;28;20020;-75
2022/11/16 09:36:00;;;;;;;5.90;5.57;;;7.10;99.90;;;;;;5056991;28;20063;-75
2022/11/16 09:38:26;;;;;;;5.10;4.90;;;7.00;99.90;;;;;;5070497;28;20060;-75
2022/11/16 09:40:51;;;;;;;5.60;5.40;;;7.10;99.90;;;;;;5070967;28;20477;-75
2022/11/16 09:43:26;;;;;;;4.30;4.20;;;7.10;99.90;;;;;;5072316;28;20043;-74
2022/11/16 09:46:02;;;;;;;4.28;4.18;;;7.10;99.90;;;;;;5050964;28;20025;-75
2022/11/16 09:48:34;;;;;;;6.10;5.90;;;7.10;99.90;;;;;;5052934;28;20455;-74
2022/11/16 09:51:07;;;;;;;4.75;4.55;;;7.20;99.90;;;;;;5063723;28;20415;-74
2022/11/16 09:53:32;;;;;;;6.53;5.50;;;7.20;99.90;;;;;;5065651;28;20013;-74
2022/11/16 09:56:03;;;;;;;5.38;5.07;;;7.30;99.90;;;;;;5061490;28;20394;-74
2022/11/16 09:58:39;;;;;;;4.78;4.57;;;7.30;99.90;;;;;;5058043;28;20017;-74
2022/11/16 10:01:22;;;;;;;5.22;5.03;;;7.30;99.90;;;;;;5060513;28;20252;-74
2022/11/16 10:03:52;;;;;;;7.88;7.25;;;7.30;99.90;;;;;;5050824;28;20025;-74
2022/11/16 10:06:48;;;;;;;6.75;6.38;;;7.30;99.90;;;;;;5064354;28;20074;-74
2022/11/16 10:09:14;;;;;;;8.32;6.63;;;7.30;99.90;;;;;;5062821;28;20102;-75
2022/11/16 10:12:01;;;;;;;8.32;7.85;;;7.30;99.90;;;;;;5065827;28;20053;-74
2022/11/16 10:14:39;;;;;;;5.60;5.40;;;7.30;99.90;;;;;;5064343;28;20074;-74
2022/11/16 10:17:22;;;;;;;6.38;6.18;;;7.40;99.90;;;;;;5060467;28;20094;-74
2022/11/16 10:20:11;;;;;;;6.68;6.47;;;7.40;99.90;;;;;;5058459;28;20482;-75
2022/11/16 10:23:20;;;;;;;6.60;6.30;;;7.40;99.90;;;;;;5058195;28;20068;-74
2022/11/16 10:26:00;;;;;;;6.15;5.95;;;7.40;99.90;;;;;;5054256;28;20047;-74
2022/11/16 10:28:47;;;;;;;6.20;6.00;;;7.40;99.90;;;;;;5061866;28;20028;-74
2022/11/16 10:31:31;;;;;;;6.45;6.15;;;7.50;99.90;;;;;;5065329;28;20029;-74
2022/11/16 10:34:00;;;;;;;6.65;6.45;;;7.50;99.90;;;;;;5064798;28;20016;-75
2022/11/16 10:36:29;;;;;;;7.25;6.95;;;7.60;99.90;;;;;;5060112;28;20615;-74
2022/11/16 10:38:56;;;;;;;6.38;6.18;;;7.60;99.90;;;;;;5066972;28;21256;-74
2022/11/16 10:41:33;;;;;;;5.95;5.75;;;7.70;99.90;;;;;;5051576;28;20111;-74
2022/11/16 10:44:00;;;;;;;5.75;5.55;;;7.60;99.90;;;;;;5064891;28;20078;-75
2022/11/16 10:46:44;;;;;;;6.53;6.32;;;7.80;99.90;;;;;;5061865;28;20078;-74
2022/11/16 10:49:34;;;;;;;6.97;6.78;;;7.80;99.90;;;;;;5058498;28;20024;-74
2022/11/16 10:52:00;;;;;;;7.75;7.00;;;7.90;99.90;;;;;;5058018;28;20020;-74
2022/11/16 10:54:25;;;;;;;7.25;6.95;;;8.00;99.90;;;;;;5071543;28;20354;-74
2022/11/16 10:57:02;;;;;;;7.78;7.47;;;8.00;99.90;;;;;;5055823;28;20111;-74
2022/11/16 10:59:44;;;;;;;7.10;6.80;;;8.00;99.90;;;;;;5068663;28;20032;-74
2022/11/16 11:02:33;;;;;;;7.50;7.25;;;7.90;99.90;;;;;;5059009;28;20024;-74
2022/11/16 11:05:04;;;;;;;9.00;8.55;;;8.00;99.90;;;;;;5067287;28;20577;-74
2022/11/16 11:07:38;;;;;;;8.15;7.85;;;7.90;99.90;;;;;;5050478;28;20025;-75
2022/11/16 11:10:41;;;;;;;6.80;6.60;;;8.00;99.90;;;;;;5058454;28;20031;-74
2022/11/16 11:13:10;;;;;;;7.97;7.68;;;8.00;99.90;;;;;;5051985;28;20475;-75
2022/11/16 11:15:37;;;;;;;8.10;7.80;;;8.00;99.90;;;;;;5060672;28;20482;-75
2022/11/16 11:18:14;;;;;;;7.10;6.90;;;8.20;99.90;;;;;;5057593;28;20028;-75
2022/11/16 11:20:43;;;;;;;8.15;7.85;;;8.10;99.90;;;;;;5072084;28;20080;-75
2022/11/16 11:23:13;;;;;;;8.32;8.02;;;8.10;99.90;;;;;;5072896;28;20029;-75
2022/11/16 11:25:54;;;;;;;7.78;7.47;;;8.20;99.90;;;;;;5075862;28;20027;-75
2022/11/16 11:28:25;;;;;;;9.38;8.98;;;8.20;99.90;;;;;;5065514;28;20028;-75
2022/11/16 11:31:11;;;;;;;9.85;9.55;;;8.40;99.90;;;;;;5067362;28;20430;-74
2022/11/16 11:33:42;;;;;;;9.02;8.73;;;8.60;99.90;;;;;;5066437;28;20020;-74
2022/11/16 11:36:19;;;;;;;9.73;9.32;;;8.90;99.90;;;;;;5060771;28;20055;-75
2022/11/16 11:39:20;;;;;;;8.85;8.55;;;9.20;99.90;;;;;;5061163;28;20495;-74
2022/11/16 11:42:01;;;;;;;8.65;8.35;;;9.30;99.90;;;;;;5060696;28;20056;-74
2022/11/16 11:44:56;;;;;;;8.63;8.32;;;9.40;99.90;;;;;;5063006;28;20017;-74
2022/11/16 11:47:27;;;;;;;9.00;8.70;;;9.10;99.90;;;;;;5060239;28;20450;-74
2022/11/16 11:50:03;;;;;;;13.23;12.48;;;9.10;99.90;;;;;;5061740;28;20087;-74
2022/11/16 11:52:36;;;;;;;11.07;10.68;;;9.10;99.90;;;;;;5057147;28;20021;-75
2022/11/16 11:55:06;;;;;;;9.70;9.40;;;9.20;99.90;;;;;;5067660;28;20025;-74
2022/11/16 11:57:37;;;;;;;10.32;9.93;;;9.10;99.90;;;;;;5063178;28;20031;-74
2022/11/16 12:00:05;;;;;;;10.55;10.18;;;9.10;99.90;;;;;;5061019;28;20021;-74
2022/11/16 12:03:09;;;;;;;15.43;14.73;;;9.10;99.90;;;;;;5074376;28;20103;-74
2022/11/16 12:05:40;;;;;;;10.55;10.15;;;9.20;99.90;;;;;;5061113;28;20029;-74
2022/11/16 12:09:05;;;;;;;11.10;10.70;;;9.30;99.90;;;;;;5060611;28;20037;-75
2022/11/16 12:12:00;;;;;;;10.77;10.38;;;9.20;99.90;;;;;;5014126;28;20037;-74
2022/11/16 12:14:54;;;;;;;10.88;10.48;;;9.50;99.90;;;;;;5074124;28;20036;-75
2022/11/16 12:17:36;;;;;;;11.80;11.40;;;9.20;99.90;;;;;;5060485;28;20025;-75
2022/11/16 12:20:11;;;;;;;10.98;10.57;;;9.30;99.90;;;;;;5054086;28;20364;-74
2022/11/16 12:22:47;;;;;;;10.70;10.30;;;9.40;99.90;;;;;;5067177;28;20052;-75
2022/11/16 12:25:24;;;;;;;10.77;10.38;;;9.50;99.90;;;;;;5064446;28;20032;-73
2022/11/16 12:28:04;;;;;;;10.73;10.32;;;9.60;99.90;;;;;;5060183;28;20036;-74
2022/11/16 12:30:32;;;;;;;10.75;10.35;;;9.60;99.90;;;;;;5060368;28;20028;-75
2022/11/16 12:33:24;;;;;;;10.70;10.30;;;9.60;99.90;;;;;;5066029;28;20399;-75
2022/11/16 12:36:02;;;;;;;9.65;9.35;;;9.70;99.90;;;;;;5073092;28;20054;-74
2022/11/16 12:38:56;;;;;;;10.95;10.45;;;9.60;99.90;;;;;;5066209;28;20029;-75
2022/11/16 12:41:49;;;;;;;10.48;10.07;;;9.70;99.90;;;;;;5063390;28;20406;-75
2022/11/16 12:44:25;;;;;;;10.20;9.82;;;9.50;99.90;;;;;;5056134;28;20056;-75
2022/11/16 12:47:11;;;;;;;10.40;10.00;;;9.60;99.90;;;;;;5066994;28;20031;-75
2022/11/16 12:50:02;;;;;;;11.10;10.70;;;9.70;99.90;;;;;;5072930;28;20458;-74
2022/11/16 12:53:01;;;;;;;11.00;10.60;;;9.90;99.90;;;;;;5057079;28;20446;-75
2022/11/16 12:55:53;;;;;;;10.60;10.20;;;9.90;99.90;;;;;;5072350;28;20111;-75
2022/11/16 12:58:30;;;;;;;11.10;10.70;;;9.90;99.90;;;;;;5060214;28;20382;-75
2022/11/16 13:01:13;;;;;;;10.35;9.95;;;9.90;99.90;;;;;;5063815;28;20418;-75
2022/11/16 13:03:45;;;;;;;10.90;10.50;;;9.80;99.90;;;;;;5072419;28;20025;-75
2022/11/16 13:06:17;;;;;;;11.60;11.20;;;9.80;99.90;;;;;;5060321;28;20037;-74
2022/11/16 13:09:09;;;;;;;11.85;11.32;;;9.80;99.90;;;;;;5053442;28;20036;-74
2022/11/16 13:11:56;;;;;;;9.80;9.50;;;9.70;99.90;;;;;;5069938;28;20021;-74
2022/11/16 13:14:31;;;;;;;10.23;9.82;;;9.60;99.90;;;;;;5071554;28;20074;-74
2022/11/16 13:16:59;;;;;;;10.52;10.13;;;9.60;99.90;;;;;;5063322;28;20033;-74
2022/11/16 13:19:25;;;;;;;9.60;9.30;;;9.60;99.90;;;;;;5052637;28;20033;-74
2022/11/16 13:22:18;;;;;;;9.60;9.30;;;9.60;99.90;;;;;;5052879;28;20023;-75
2022/11/16 13:24:58;;;;;;;10.85;10.45;;;9.50;99.90;;;;;;5052642;28;20033;-75
2022/11/16 13:27:30;;;;;;;10.40;10.00;;;9.40;99.90;;;;;;5052256;28;20048;-73
2022/11/16 13:30:04;;;;;;;9.90;9.60;;;9.50;99.90;;;;;;5052675;28;20029;-74
2022/11/16 13:32:49;;;;;;;9.93;9.63;;;9.40;99.90;;;;;;5052400;28;20517;-74
2022/11/16 13:35:16;;;;;;;10.48;10.07;;;9.50;99.90;;;;;;5052464;28;20025;-74
2022/11/16 13:37:46;;;;;;;10.50;10.10;;;9.50;99.90;;;;;;5052075;28;20029;-74
2022/11/16 13:40:28;;;;;;;10.70;10.30;;;9.60;99.90;;;;;;5052349;28;20032;-75
2022/11/16 13:43:08;;;;;;;9.70;9.40;;;9.90;99.90;;;;;;5052347;28;20025;-73
2022/11/16 13:45:40;;;;;;;12.52;11.93;;;10.20;99.90;;;;;;5051387;28;20032;-74
2022/11/16 13:48:20;;;;;;;9.55;9.25;;;10.30;99.90;;;;;;5052000;28;20061;-74
2022/11/16 13:50:54;;;;;;;10.00;9.68;;;10.40;99.90;;;;;;5052207;28;20544;-74
2022/11/16 13:53:32;;;;;;;10.43;10.02;;;10.40;99.90;;;;;;5050820;28;20575;-74
2022/11/16 13:56:00;;;;;;;8.45;8.15;;;10.40;99.90;;;;;;5051929;28;20074;-74
2022/11/16 13:58:27;;;;;;;11.23;10.82;;;10.30;99.90;;;;;;5051759;28;20292;-74
2022/11/16 14:01:15;;;;;;;8.88;8.57;;;10.20;99.90;;;;;;5051951;28;20021;-74
2022/11/16 14:03:44;;;;;;;8.60;8.30;;;10.40;99.90;;;;;;5051883;28;20029;-74